createdAt,value
2022-12-26T00:01:32.043Z,2.17
2022-12-26T00:03:42.679Z,2.07
2022-12-26T00:05:53.499Z,1.80
2022-12-26T00:08:04.062Z,1.90
2022-12-26T00:10:12.707Z,2.20
2022-12-26T00:12:21.642Z,2.53
2022-12-26T00:14:31.803Z,2.10
2022-12-26T00:16:42.283Z,2.20
2022-12-26T00:18:52.633Z,2.23
2022-12-26T00:21:03.597Z,2.77
2022-12-26T00:23:14.741Z,2.20
2022-12-26T00:25:23.617Z,2.30
2022-12-26T00:27:32.943Z,2.60
2022-12-26T00:29:42.339Z,2.27
2022-12-26T00:31:53.694Z,2.70
2022-12-26T00:34:06.038Z,2.80
2022-12-26T00:36:18.532Z,2.50
2022-12-26T00:38:27.946Z,2.30
2022-12-26T00:40:36.721Z,3.20
2022-12-26T00:42:45.867Z,2.77
2022-12-26T00:44:54.871Z,2.50
2022-12-26T00:47:04.030Z,3.10
2022-12-26T00:49:13.237Z,3.00
2022-12-26T00:51:24.875Z,2.57
2022-12-26T00:53:36.377Z,2.80
2022-12-26T00:55:47.808Z,2.60
2022-12-26T00:57:56.456Z,2.87
2022-12-26T01:00:06.313Z,2.50
2022-12-26T01:02:29.187Z,3.10
2022-12-26T01:04:39.605Z,2.87
2022-12-26T01:06:52.960Z,2.77
2022-12-26T01:09:01.976Z,2.63
2022-12-26T01:11:12.128Z,2.77
2022-12-26T01:13:21.380Z,2.40
2022-12-26T01:15:30.662Z,2.93
2022-12-26T01:17:39.703Z,2.97
2022-12-26T01:19:48.612Z,2.90
2022-12-26T01:22:06.119Z,2.80
2022-12-26T01:24:15.684Z,2.77
2022-12-26T01:26:24.386Z,2.53
2022-12-26T01:28:33.532Z,2.67
2022-12-26T01:30:42.744Z,3.40
2022-12-26T01:32:51.464Z,2.73
2022-12-26T01:35:01.004Z,2.43
2022-12-26T01:37:13.324Z,2.60
2022-12-26T01:39:22.324Z,2.93
2022-12-26T01:41:33.649Z,2.67
2022-12-26T01:43:56.951Z,2.83
2022-12-26T01:46:06.062Z,2.97
2022-12-26T01:48:18.623Z,3.10
2022-12-26T01:50:32.883Z,3.13
2022-12-26T01:52:49.496Z,3.27
2022-12-26T01:54:59.282Z,3.00
2022-12-26T01:57:11.037Z,2.73
2022-12-26T01:59:21.331Z,3.10
2022-12-26T02:01:33.875Z,2.83
2022-12-26T02:04:04.103Z,3.33
2022-12-26T02:06:13.344Z,3.63
2022-12-26T02:08:25.542Z,2.97
2022-12-26T02:10:38.865Z,3.50
2022-12-26T02:12:49.002Z,2.93
2022-12-26T02:14:59.969Z,3.60
2022-12-26T02:17:11.352Z,3.30
2022-12-26T02:19:25.896Z,3.50
2022-12-26T02:21:49.827Z,4.00
2022-12-26T02:24:17.421Z,4.17
2022-12-26T02:26:48.169Z,3.73
2022-12-26T02:29:17.900Z,3.60
2022-12-26T02:31:38.166Z,3.20
2022-12-26T02:33:52.506Z,2.47
2022-12-26T02:36:11.923Z,3.43
2022-12-26T02:38:28.500Z,2.53
2022-12-26T02:40:48.479Z,3.07
2022-12-26T02:43:02.045Z,2.97
2022-12-26T02:45:34.536Z,3.40
2022-12-26T02:47:51.075Z,3.37
2022-12-26T02:50:22.113Z,3.07
2022-12-26T02:52:50.902Z,3.43
2022-12-26T02:55:20.575Z,2.73
2022-12-26T02:57:51.658Z,3.00
2022-12-26T03:00:20.737Z,3.00
2022-12-26T03:02:51.455Z,2.77
2022-12-26T03:05:23.925Z,2.60
2022-12-26T03:07:52.602Z,2.50
2022-12-26T03:10:20.616Z,2.80
2022-12-26T03:12:53.081Z,2.90
2022-12-26T03:15:06.923Z,3.33
2022-12-26T03:17:21.825Z,2.80
2022-12-26T03:19:33.558Z,2.60
2022-12-26T03:21:48.115Z,2.47
2022-12-26T03:24:00.156Z,2.87
2022-12-26T03:26:29.757Z,3.00
2022-12-26T03:28:44.365Z,3.23
2022-12-26T03:30:52.635Z,3.10
2022-12-26T03:33:01.962Z,3.13
2022-12-26T03:35:13.595Z,2.87
2022-12-26T03:37:50.427Z,3.50
2022-12-26T03:40:23.973Z,3.40
2022-12-26T03:42:53.907Z,3.83
2022-12-26T03:45:23.479Z,3.33
2022-12-26T03:47:56.091Z,3.33
2022-12-26T03:50:28.867Z,3.60
2022-12-26T03:52:58.348Z,3.93
2022-12-26T03:55:30.867Z,4.20
2022-12-26T03:58:00.377Z,4.17
2022-12-26T04:00:28.008Z,4.07
2022-12-26T04:02:51.683Z,4.80
2022-12-26T04:05:21.354Z,5.03
2022-12-26T04:07:56.028Z,3.93
2022-12-26T04:10:26.385Z,4.37
2022-12-26T04:12:54.697Z,4.80
2022-12-26T04:15:32.032Z,4.10
2022-12-26T04:18:00.452Z,4.57
2022-12-26T04:20:14.011Z,4.40
2022-12-26T04:22:43.307Z,4.50
2022-12-26T04:25:19.183Z,4.40
2022-12-26T04:27:49.403Z,3.93
2022-12-26T04:30:18.768Z,3.63
2022-12-26T04:32:54.558Z,4.10
2022-12-26T04:35:23.615Z,4.27
2022-12-26T04:37:52.226Z,4.10
2022-12-26T04:40:20.669Z,4.37
2022-12-26T04:42:47.240Z,4.47
2022-12-26T04:45:15.515Z,4.90
2022-12-26T04:47:26.969Z,4.50
2022-12-26T04:50:17.265Z,4.10
2022-12-26T04:52:53.586Z,4.40
2022-12-26T04:55:02.782Z,3.83
2022-12-26T04:57:18.079Z,4.70
2022-12-26T04:59:27.902Z,4.40
2022-12-26T05:01:54.329Z,4.37
2022-12-26T05:04:22.375Z,4.57
2022-12-26T05:06:52.027Z,4.17
2022-12-26T05:09:18.425Z,4.30
2022-12-26T05:11:27.622Z,4.03
2022-12-26T05:13:36.325Z,4.50
2022-12-26T05:16:00.407Z,4.10
2022-12-26T05:18:26.852Z,3.53
2022-12-26T05:20:58.639Z,3.80
2022-12-26T05:23:25.401Z,3.80
2022-12-26T05:25:55.034Z,3.40
2022-12-26T05:28:22.815Z,3.60
2022-12-26T05:30:32.408Z,3.43
2022-12-26T05:33:03.089Z,3.40
2022-12-26T05:35:12.565Z,3.47
2022-12-26T05:37:25.037Z,3.27
2022-12-26T05:39:37.335Z,3.47
2022-12-26T05:41:49.150Z,4.00
2022-12-26T05:44:02.247Z,3.40
2022-12-26T05:46:11.635Z,3.73
2022-12-26T05:48:22.170Z,4.07
2022-12-26T05:50:32.935Z,4.43
2022-12-26T05:52:46.333Z,4.03
2022-12-26T05:54:55.566Z,4.63
2022-12-26T05:57:04.945Z,4.70
2022-12-26T05:59:14.576Z,5.00
2022-12-26T06:01:24.079Z,4.87
2022-12-26T06:03:33.032Z,4.80
2022-12-26T06:05:43.457Z,4.80
2022-12-26T06:07:54.639Z,4.70
2022-12-26T06:10:13.076Z,5.20
2022-12-26T06:12:23.168Z,4.57
2022-12-26T06:14:32.448Z,4.50
2022-12-26T06:16:42.245Z,4.80
2022-12-26T06:18:52.768Z,4.33
2022-12-26T06:21:02.030Z,4.70
2022-12-26T06:23:13.095Z,4.23
2022-12-26T06:25:30.896Z,4.27
2022-12-26T06:27:45.502Z,4.47
2022-12-26T06:29:57.846Z,3.93
2022-12-26T06:32:07.659Z,4.30
2022-12-26T06:34:18.636Z,4.60
2022-12-26T06:36:28.536Z,5.07
2022-12-26T06:38:41.539Z,4.10
2022-12-26T06:40:50.327Z,4.40
2022-12-26T06:42:59.265Z,4.70
2022-12-26T06:45:09.018Z,4.40
2022-12-26T06:47:18.344Z,4.33
2022-12-26T06:49:32.701Z,4.37
2022-12-26T06:51:45.312Z,4.63
2022-12-26T06:53:57.076Z,4.13
2022-12-26T06:56:09.766Z,4.43
2022-12-26T06:58:19.119Z,3.80
2022-12-26T07:00:34.830Z,4.57
2022-12-26T07:02:44.924Z,4.97
2022-12-26T07:05:01.141Z,4.33
2022-12-26T07:07:12.855Z,4.80
2022-12-26T07:09:27.046Z,4.40
2022-12-26T07:11:40.910Z,5.00
2022-12-26T07:13:51.989Z,4.20
2022-12-26T07:16:04.846Z,4.10
2022-12-26T07:18:16.691Z,4.23
2022-12-26T07:20:25.799Z,4.57
2022-12-26T07:22:36.687Z,4.30
2022-12-26T07:24:47.045Z,4.50
2022-12-26T07:26:57.364Z,4.17
2022-12-26T07:29:08.147Z,3.57
2022-12-26T07:31:20.924Z,4.07
2022-12-26T07:33:30.427Z,4.00
2022-12-26T07:35:42.029Z,3.67
2022-12-26T07:37:51.726Z,3.80
2022-12-26T07:40:02.531Z,4.00
2022-12-26T07:42:11.842Z,3.73
2022-12-26T07:44:20.835Z,3.60
2022-12-26T07:46:29.715Z,4.00
2022-12-26T07:48:39.044Z,3.67
2022-12-26T07:50:50.576Z,3.53
2022-12-26T07:53:01.487Z,3.23
2022-12-26T07:55:12.729Z,3.67
2022-12-26T07:57:47.378Z,3.67
2022-12-26T07:59:58.861Z,3.27
2022-12-26T08:02:08.498Z,2.73
2022-12-26T08:04:17.843Z,3.30
2022-12-26T08:06:29.278Z,2.67
2022-12-26T08:08:39.036Z,3.17
2022-12-26T08:10:51.754Z,3.17
2022-12-26T08:13:01.415Z,3.03
2022-12-26T08:15:11.939Z,3.40
2022-12-26T08:17:21.445Z,3.50
2022-12-26T08:19:30.711Z,3.40
2022-12-26T08:21:39.628Z,3.10
2022-12-26T08:23:48.843Z,3.03
2022-12-26T08:25:59.365Z,3.30
2022-12-26T08:28:10.538Z,3.50
2022-12-26T08:30:19.744Z,3.57
2022-12-26T08:32:31.766Z,3.20
2022-12-26T08:34:45.190Z,3.07
2022-12-26T08:36:54.395Z,3.33
2022-12-26T08:39:08.512Z,4.17
2022-12-26T08:41:21.015Z,3.00
2022-12-26T08:44:16.538Z,3.30
2022-12-26T08:46:21.780Z,3.93
2022-12-26T08:48:34.796Z,3.53
2022-12-26T08:51:09.050Z,3.60
2022-12-26T08:53:19.334Z,3.53
2022-12-26T08:55:28.318Z,3.13
2022-12-26T08:57:42.438Z,4.17
2022-12-26T09:00:07.219Z,3.77
2022-12-26T09:02:16.566Z,3.80
2022-12-26T09:04:30.104Z,4.07
2022-12-26T09:06:40.155Z,3.07
2022-12-26T09:08:49.554Z,3.43
2022-12-26T09:10:58.525Z,3.10
2022-12-26T09:13:09.872Z,3.90
2022-12-26T09:15:20.544Z,3.50
2022-12-26T09:17:30.225Z,3.50
2022-12-26T09:19:40.336Z,3.57
2022-12-26T09:22:17.415Z,3.60
2022-12-26T09:24:30.021Z,3.97
2022-12-26T09:26:40.291Z,3.63
2022-12-26T09:28:51.776Z,3.70
2022-12-26T09:31:02.443Z,3.37
2022-12-26T09:33:23.239Z,3.33
2022-12-26T09:35:32.726Z,3.73
2022-12-26T09:37:42.222Z,4.63
2022-12-26T09:40:07.395Z,4.40
2022-12-26T09:42:33.852Z,4.60
2022-12-26T09:44:53.052Z,4.60
2022-12-26T09:47:10.787Z,4.67
2022-12-26T09:49:41.356Z,5.37
2022-12-26T09:51:51.687Z,5.30
2022-12-26T09:54:02.086Z,5.97
2022-12-26T09:57:01.729Z,6.50
2022-12-26T09:59:16.899Z,6.30
2022-12-26T10:01:55.195Z,6.87
2022-12-26T10:04:08.221Z,7.60
2022-12-26T10:06:20.992Z,7.90
2022-12-26T10:08:50.804Z,8.10
2022-12-26T10:11:04.663Z,8.30
2022-12-26T10:13:23.958Z,8.73
2022-12-26T10:15:42.580Z,8.53
2022-12-26T10:18:07.824Z,8.53
2022-12-26T10:20:24.751Z,9.37
2022-12-26T10:22:46.676Z,9.80
2022-12-26T10:24:57.216Z,9.47
2022-12-26T10:27:18.204Z,10.27
2022-12-26T10:29:33.480Z,10.67
2022-12-26T10:32:15.415Z,10.27
2022-12-26T10:34:45.218Z,10.67
2022-12-26T10:37:05.402Z,10.80
2022-12-26T10:39:19.527Z,11.23
2022-12-26T10:41:36.635Z,11.60
2022-12-26T10:43:55.520Z,11.23
2022-12-26T10:46:26.725Z,10.87
2022-12-26T10:48:47.679Z,7.80
2022-12-26T10:51:23.454Z,11.23
2022-12-26T10:53:39.177Z,10.97
2022-12-26T10:55:49.788Z,11.27
2022-12-26T10:58:08.374Z,11.17
2022-12-26T11:00:22.207Z,10.60
2022-12-26T11:02:35.480Z,11.30
2022-12-26T11:07:34.047Z,10.47
2022-12-26T11:09:50.256Z,9.50
2022-12-26T11:12:05.167Z,10.37
2022-12-26T11:14:33.757Z,10.90
2022-12-26T11:16:51.015Z,9.70
2022-12-26T11:19:03.896Z,10.37
2022-12-26T11:21:26.095Z,8.97
2022-12-26T11:23:38.763Z,9.73
2022-12-26T11:26:17.165Z,10.53
2022-12-26T11:28:44.163Z,11.23
2022-12-26T11:31:05.666Z,10.50
2022-12-26T11:33:28.988Z,9.53
2022-12-26T11:36:10.883Z,9.83
2022-12-26T11:38:45.509Z,9.23
2022-12-26T11:41:13.324Z,9.97
2022-12-26T11:43:32.526Z,9.27
2022-12-26T11:45:52.728Z,9.60
2022-12-26T11:48:11.632Z,9.20
2022-12-26T11:50:30.846Z,9.43
2022-12-26T11:54:06.660Z,9.33
2022-12-26T11:55:43.923Z,10.13
2022-12-26T11:58:14.099Z,9.57
2022-12-26T12:00:35.219Z,9.07
2022-12-26T12:03:47.006Z,9.17
2022-12-26T12:06:09.438Z,10.10
2022-12-26T12:09:05.362Z,9.13
2022-12-26T12:11:36.555Z,8.57
2022-12-26T12:16:54.371Z,8.10
2022-12-26T12:19:41.337Z,9.43
2022-12-26T12:22:42.158Z,7.97
2022-12-26T12:25:00.108Z,7.00
2022-12-26T12:28:24.059Z,8.87
2022-12-26T12:30:14.893Z,7.17
2022-12-26T12:32:30.384Z,8.00
2022-12-26T12:35:39.426Z,7.83
2022-12-26T12:41:49.325Z,7.90
2022-12-26T12:44:22.978Z,7.50
2022-12-26T12:47:13.914Z,8.30
2022-12-26T12:49:39.799Z,8.23
2022-12-26T12:52:22.700Z,3.30
2022-12-26T12:54:57.283Z,7.43
2022-12-26T12:57:15.572Z,8.27
2022-12-26T12:59:38.914Z,8.70
2022-12-26T13:01:49.301Z,8.33
2022-12-26T13:04:01.593Z,8.17
2022-12-26T13:06:19.053Z,8.43
2022-12-26T13:08:33.601Z,8.30
2022-12-26T13:10:50.494Z,8.40
2022-12-26T13:13:01.728Z,8.33
2022-12-26T13:15:30.003Z,8.07
2022-12-26T13:17:50.225Z,8.30
2022-12-26T13:20:07.323Z,8.47
2022-12-26T13:22:22.367Z,8.37
2022-12-26T13:24:37.906Z,7.90
2022-12-26T13:26:53.063Z,8.73
2022-12-26T13:29:18.706Z,8.60
2022-12-26T13:31:42.544Z,7.67
2022-12-26T13:33:58.641Z,8.37
2022-12-26T13:36:15.654Z,8.30
2022-12-26T13:38:27.745Z,8.73
2022-12-26T13:40:43.982Z,8.10
2022-12-26T13:43:22.618Z,8.90
2022-12-26T13:46:02.691Z,8.73
2022-12-26T13:49:10.716Z,8.57
2022-12-26T13:54:17.835Z,8.03
2022-12-26T13:56:53.105Z,9.27
2022-12-26T13:59:07.866Z,9.23
2022-12-26T14:01:55.270Z,8.70
2022-12-26T14:04:23.229Z,9.50
2022-12-26T14:07:12.135Z,9.87
2022-12-26T14:09:38.180Z,8.77
2022-12-26T14:12:03.253Z,8.50
2022-12-26T14:14:28.863Z,9.80
2022-12-26T14:16:47.675Z,8.70
2022-12-26T14:19:13.059Z,10.07
2022-12-26T14:21:56.386Z,10.00
2022-12-26T14:24:17.544Z,9.80
2022-12-26T14:26:44.820Z,10.60
2022-12-26T14:29:23.987Z,10.37
2022-12-26T14:31:53.940Z,11.10
2022-12-26T14:37:38.334Z,10.10
2022-12-26T14:40:13.097Z,10.90
2022-12-26T14:42:48.660Z,10.63
2022-12-26T14:45:18.342Z,9.17
2022-12-26T14:48:01.206Z,11.27
2022-12-26T14:50:40.606Z,11.87
2022-12-26T14:54:05.567Z,11.53
2022-12-26T14:55:51.391Z,8.13
2022-12-26T14:58:24.180Z,10.40
2022-12-26T15:00:49.238Z,10.77
2022-12-26T15:03:34.663Z,10.43
2022-12-26T15:06:12.361Z,11.47
2022-12-26T15:08:34.028Z,11.17
2022-12-26T15:11:22.326Z,10.93
2022-12-26T15:13:55.056Z,10.83
2022-12-26T15:16:17.259Z,9.93
2022-12-26T15:18:53.096Z,12.13
2022-12-26T15:21:39.107Z,10.63
2022-12-26T15:24:17.860Z,10.57
2022-12-26T15:27:16.815Z,10.87
2022-12-26T15:30:05.181Z,10.63
2022-12-26T15:32:50.166Z,11.30
2022-12-26T15:35:15.851Z,10.77
2022-12-26T15:38:21.203Z,10.80
2022-12-26T15:40:55.182Z,7.37
2022-12-26T15:43:30.432Z,10.47
2022-12-26T15:45:57.857Z,10.57
2022-12-26T15:48:27.717Z,10.43
2022-12-26T15:50:56.797Z,10.77
2022-12-26T15:53:38.047Z,8.70
2022-12-26T15:56:31.179Z,10.80
2022-12-26T15:59:14.953Z,10.67
2022-12-26T16:02:07.813Z,11.40
2022-12-26T16:04:39.474Z,11.17
2022-12-26T16:07:24.356Z,10.97
2022-12-26T16:10:08.015Z,11.23
2022-12-26T16:12:41.162Z,10.47
2022-12-26T16:15:24.405Z,7.63
2022-12-26T16:17:35.581Z,9.97
2022-12-26T16:19:53.067Z,11.47
2022-12-26T16:22:22.721Z,9.83
2022-12-26T16:24:59.243Z,10.83
2022-12-26T16:27:36.882Z,11.00
2022-12-26T16:30:59.178Z,10.13
2022-12-26T16:32:47.335Z,10.77
2022-12-26T16:35:26.660Z,11.00
2022-12-26T16:38:03.336Z,10.10
2022-12-26T16:40:18.406Z,11.70
2022-12-26T16:42:41.142Z,12.47
2022-12-26T16:45:02.093Z,11.97
2022-12-26T16:47:18.656Z,11.20
2022-12-26T16:50:05.915Z,11.60
2022-12-26T16:52:46.775Z,9.50
2022-12-26T16:55:12.347Z,8.30
2022-12-26T16:58:17.306Z,11.73
2022-12-26T17:00:35.172Z,11.93
2022-12-26T17:02:58.102Z,11.63
2022-12-26T17:05:09.045Z,12.73
2022-12-26T17:07:19.264Z,12.17
2022-12-26T17:09:29.677Z,6.03
2022-12-26T17:11:41.989Z,11.57
2022-12-26T17:13:56.125Z,7.83
2022-12-26T17:16:11.595Z,7.83
2022-12-26T17:18:50.803Z,11.67
2022-12-26T17:21:17.649Z,11.93
2022-12-26T17:23:40.484Z,12.47
2022-12-26T17:25:50.991Z,11.27
2022-12-26T17:28:19.019Z,11.23
2022-12-26T17:30:30.011Z,9.90
2022-12-26T17:32:43.012Z,13.07
2022-12-26T17:34:52.448Z,12.67
2022-12-26T17:37:18.946Z,13.10
2022-12-26T17:39:32.125Z,11.77
2022-12-26T17:41:56.985Z,13.00
2022-12-26T17:44:29.863Z,12.13
2022-12-26T17:46:42.398Z,11.97
2022-12-26T17:49:12.484Z,11.37
2022-12-26T17:51:52.151Z,12.57
2022-12-26T17:54:20.371Z,11.30
2022-12-26T17:56:33.972Z,12.40
2022-12-26T17:58:44.711Z,12.77
2022-12-26T18:01:05.969Z,12.53
2022-12-26T18:03:23.133Z,11.60
2022-12-26T18:08:16.404Z,11.73
2022-12-26T18:11:03.455Z,12.37
2022-12-26T18:13:29.885Z,9.83
2022-12-26T18:15:57.060Z,11.80
2022-12-26T18:18:23.264Z,11.73
2022-12-26T18:20:46.567Z,11.30
2022-12-26T18:23:03.198Z,11.07
2022-12-26T18:25:21.154Z,8.83
2022-12-26T18:27:33.816Z,11.17
2022-12-26T18:29:46.895Z,11.53
2022-12-26T18:32:02.224Z,10.90
2022-12-26T18:34:33.334Z,6.37
2022-12-26T18:37:10.343Z,10.27
2022-12-26T18:39:27.799Z,7.87
2022-12-26T18:41:41.966Z,9.27
2022-12-26T18:43:58.134Z,10.13
2022-12-26T18:46:22.545Z,10.33
2022-12-26T18:48:34.666Z,9.70
2022-12-26T18:50:47.450Z,9.97
2022-12-26T18:53:21.957Z,10.73
2022-12-26T18:55:48.775Z,9.00
2022-12-26T18:58:06.676Z,10.43
2022-12-26T19:00:21.063Z,9.63
2022-12-26T19:02:38.882Z,9.57
2022-12-26T19:05:00.518Z,9.77
2022-12-26T19:07:11.091Z,9.57
2022-12-26T19:09:26.075Z,9.97
2022-12-26T19:11:55.375Z,9.70
2022-12-26T19:14:07.936Z,7.83
2022-12-26T19:16:24.382Z,9.23
2022-12-26T19:19:03.206Z,6.43
2022-12-26T19:21:21.031Z,9.63
2022-12-26T19:23:40.370Z,8.93
2022-12-26T19:26:04.017Z,8.57
2022-12-26T19:28:32.478Z,10.33
2022-12-26T19:30:54.947Z,8.90
2022-12-26T19:33:09.304Z,5.90
2022-12-26T19:35:20.475Z,9.03
2022-12-26T19:37:43.514Z,7.77
2022-12-26T19:39:55.101Z,8.37
2022-12-26T19:42:31.278Z,6.30
2022-12-26T19:44:51.300Z,8.40
2022-12-26T19:47:15.063Z,4.53
2022-12-26T19:49:33.426Z,6.80
2022-12-26T19:51:43.241Z,5.97
2022-12-26T19:53:54.803Z,5.47
2022-12-26T19:56:25.558Z,5.70
2022-12-26T19:58:44.981Z,5.33
2022-12-26T20:00:58.254Z,5.40
2022-12-26T20:03:12.206Z,5.03
2022-12-26T20:05:45.991Z,5.07
2022-12-26T20:07:57.993Z,4.57
2022-12-26T20:10:11.374Z,5.13
2022-12-26T20:12:23.277Z,4.50
2022-12-26T20:14:40.025Z,4.67
2022-12-26T20:17:09.615Z,2.87
2022-12-26T20:19:39.370Z,3.67
2022-12-26T20:21:48.772Z,4.10
2022-12-26T20:24:00.966Z,4.17
2022-12-26T20:26:18.533Z,3.60
2022-12-26T20:28:35.967Z,3.43
2022-12-26T20:30:46.868Z,3.13
2022-12-26T20:33:12.996Z,3.17
2022-12-26T20:35:39.989Z,3.30
2022-12-26T20:37:59.664Z,2.97
2022-12-26T20:40:19.767Z,3.70
2022-12-26T20:42:32.792Z,2.83
2022-12-26T20:44:45.959Z,3.93
2022-12-26T20:47:05.230Z,3.43
2022-12-26T20:49:19.318Z,3.70
2022-12-26T20:51:36.931Z,3.67
2022-12-26T20:53:51.420Z,3.27
2022-12-26T20:56:12.538Z,3.23
2022-12-26T20:58:48.446Z,2.87
2022-12-26T21:01:07.972Z,2.47
2022-12-26T21:03:26.471Z,2.83
2022-12-26T21:05:55.272Z,2.40
2022-12-26T21:08:08.790Z,2.33
2022-12-26T21:10:30.928Z,2.63
2022-12-26T21:12:44.148Z,2.20
2022-12-26T21:15:03.616Z,2.07
2022-12-26T21:17:18.948Z,1.77
2022-12-26T21:19:29.872Z,2.07
2022-12-26T21:21:44.743Z,2.20
2022-12-26T21:24:10.147Z,2.60
2022-12-26T21:26:36.453Z,2.30
2022-12-26T21:28:48.269Z,1.80
2022-12-26T21:31:17.744Z,1.57
2022-12-26T21:33:39.072Z,2.27
2022-12-26T21:35:53.616Z,1.87
2022-12-26T21:38:01.603Z,1.70
2022-12-26T21:40:13.023Z,1.73
2022-12-26T21:42:23.917Z,1.60
2022-12-26T21:44:33.826Z,1.63
2022-12-26T21:46:43.067Z,1.43
2022-12-26T21:48:55.639Z,1.53
2022-12-26T21:51:05.481Z,1.17
2022-12-26T21:53:21.084Z,1.30
2022-12-26T21:55:31.182Z,1.40
2022-12-26T21:57:42.631Z,1.20
2022-12-26T22:00:04.711Z,1.30
2022-12-26T22:02:41.550Z,1.00
2022-12-26T22:05:20.093Z,1.40
2022-12-26T22:07:41.780Z,1.50
2022-12-26T22:10:42.003Z,1.13
2022-12-26T22:16:14.646Z,1.50
2022-12-26T22:18:57.925Z,1.30
2022-12-26T22:21:22.485Z,1.10
2022-12-26T22:23:33.262Z,1.03
2022-12-26T22:25:57.325Z,1.23
2022-12-26T22:28:16.552Z,1.17
2022-12-26T22:30:37.014Z,0.87
2022-12-26T22:32:59.659Z,0.93
2022-12-26T22:35:18.667Z,1.10
2022-12-26T22:37:38.346Z,1.00
2022-12-26T22:39:51.811Z,1.07
2022-12-26T22:42:06.560Z,0.87
2022-12-26T22:44:19.676Z,0.90
2022-12-26T22:46:35.052Z,0.83
2022-12-26T22:48:46.243Z,0.73
2022-12-26T22:51:07.370Z,0.80
2022-12-26T22:53:42.160Z,0.63
2022-12-26T22:56:03.717Z,0.70
2022-12-26T22:58:59.722Z,0.80
2022-12-26T23:01:18.436Z,0.67
2022-12-26T23:03:34.623Z,0.80
2022-12-26T23:05:52.279Z,0.80
2022-12-26T23:08:19.946Z,0.70
2022-12-26T23:10:30.473Z,0.50
2022-12-26T23:12:47.395Z,1.17
2022-12-26T23:14:59.435Z,1.70
2022-12-26T23:17:12.000Z,1.07
2022-12-26T23:19:43.427Z,1.33
2022-12-26T23:21:51.427Z,0.87
2022-12-26T23:24:04.905Z,0.83
2022-12-26T23:26:14.079Z,1.20
2022-12-26T23:28:51.605Z,0.80
2022-12-26T23:31:08.789Z,0.90
2022-12-26T23:33:19.242Z,0.90
2022-12-26T23:35:28.808Z,0.70
2022-12-26T23:37:41.624Z,0.87
2022-12-26T23:39:54.124Z,0.90
2022-12-26T23:42:04.191Z,1.10
2022-12-26T23:45:23.332Z,1.37
2022-12-26T23:47:10.869Z,1.17
2022-12-26T23:49:20.757Z,1.27
2022-12-26T23:51:30.536Z,1.20
2022-12-26T23:53:43.242Z,1.43
2022-12-26T23:55:55.252Z,1.67
2022-12-26T23:58:06.668Z,1.83
